Time;durP1;ratioP1;P1;durP2;ratioP2;P2;SDS_P1;SDS_P2;PMS_P1;PMS_P2;Temp;Humidity;BMP_temperature;BMP_pressure;BME280_temperature;BME280_humidity;BME280_pressure;Samples;Min_cycle;Max_cycle;Signal;HPM_P1;HPM_P2
2021/07/31 00:00:08;;;;;;;4.30;0.80;;;20.30;96.60;;;;;;5012814;28;20272;-77
2021/07/31 00:02:41;;;;;;;1.90;0.80;;;20.20;96.60;;;;;;5012659;28;20206;-77
2021/07/31 00:05:07;;;;;;;2.23;1.00;;;20.20;96.70;;;;;;5013889;28;20636;-78
2021/07/31 00:07:33;;;;;;;4.37;0.80;;;20.10;97.10;;;;;;5012600;28;20615;-77
2021/07/31 00:10:00;;;;;;;2.23;0.80;;;20.10;96.80;;;;;;5013277;28;20660;-77
2021/07/31 00:12:26;;;;;;;2.33;0.70;;;20.10;96.90;;;;;;5013998;28;20174;-76
2021/07/31 00:14:52;;;;;;;2.47;0.80;;;20.00;97.00;;;;;;5019718;28;20608;-77
2021/07/31 00:17:17;;;;;;;2.23;0.80;;;20.00;97.00;;;;;;5018099;28;20170;-77
2021/07/31 00:19:43;;;;;;;3.30;0.70;;;19.90;97.10;;;;;;4996307;28;20626;-78
2021/07/31 00:22:09;;;;;;;4.13;0.87;;;19.90;97.10;;;;;;4996068;28;20174;-78
2021/07/31 00:24:34;;;;;;;1.60;0.70;;;19.80;97.20;;;;;;5013466;28;20178;-77
2021/07/31 00:27:00;;;;;;;3.23;0.73;;;19.80;97.20;;;;;;5013634;28;20598;-77
2021/07/31 00:29:26;;;;;;;1.77;0.70;;;19.80;97.20;;;;;;5015078;28;20198;-77
2021/07/31 00:31:54;;;;;;;2.13;0.77;;;19.80;97.30;;;;;;5021569;28;20675;-77
2021/07/31 00:34:20;;;;;;;2.03;0.73;;;19.70;97.40;;;;;;5019334;28;20573;-78
2021/07/31 00:36:46;;;;;;;2.70;0.60;;;19.70;97.80;;;;;;5018399;28;20264;-78
2021/07/31 00:39:11;;;;;;;4.50;0.70;;;19.70;97.50;;;;;;5014428;28;20190;-77
2021/07/31 00:41:37;;;;;;;3.10;0.70;;;19.60;97.50;;;;;;5015282;28;20174;-78
2021/07/31 00:44:03;;;;;;;1.53;0.67;;;19.60;97.50;;;;;;5015521;28;20558;-78
2021/07/31 00:46:29;;;;;;;2.03;0.80;;;19.60;97.60;;;;;;5014024;28;20162;-78
2021/07/31 00:48:56;;;;;;;5.30;0.70;;;19.60;97.70;;;;;;5013057;28;20627;-77
2021/07/31 00:51:22;;;;;;;2.63;1.30;;;19.60;97.80;;;;;;5012199;28;20683;-77
2021/07/31 00:53:50;;;;;;;1.40;0.70;;;19.60;97.90;;;;;;5015160;28;20624;-77
2021/07/31 00:56:16;;;;;;;2.50;0.70;;;19.60;98.00;;;;;;5012902;28;20584;-76
2021/07/31 00:58:43;;;;;;;2.37;0.70;;;19.60;98.00;;;;;;5012667;28;20570;-77
2021/07/31 01:01:13;;;;;;;2.33;0.70;;;19.60;98.10;;;;;;5011522;28;20607;-78
2021/07/31 01:03:40;;;;;;;2.33;0.70;;;19.60;98.20;;;;;;5011608;28;20708;-77
2021/07/31 01:06:07;;;;;;;3.33;0.80;;;19.70;98.30;;;;;;5012501;28;20529;-77
2021/07/31 01:08:33;;;;;;;2.23;0.77;;;19.70;98.30;;;;;;5011309;28;20688;-77
2021/07/31 01:11:02;;;;;;;4.67;0.67;;;19.70;98.30;;;;;;4994725;28;20643;-77
2021/07/31 01:13:30;;;;;;;2.30;0.90;;;19.70;98.30;;;;;;5011496;28;20576;-77
2021/07/31 01:16:02;;;;;;;1.70;0.60;;;19.70;98.40;;;;;;5012348;28;21249;-77
2021/07/31 01:18:29;;;;;;;1.50;0.80;;;19.60;98.40;;;;;;5011134;28;20562;-77
2021/07/31 01:20:55;;;;;;;3.40;0.80;;;19.60;98.40;;;;;;5012239;28;20609;-77
2021/07/31 01:23:22;;;;;;;2.10;0.80;;;19.60;98.40;;;;;;5011435;28;20601;-77
2021/07/31 01:25:48;;;;;;;3.83;1.10;;;19.60;98.50;;;;;;5010960;28;20652;-77
2021/07/31 01:28:14;;;;;;;2.43;0.97;;;19.60;98.40;;;;;;5011073;28;21125;-77
2021/07/31 01:30:41;;;;;;;2.70;0.80;;;19.60;98.50;;;;;;5014140;28;20617;-77
2021/07/31 01:33:07;;;;;;;3.93;0.80;;;19.50;98.50;;;;;;5018889;28;21235;-77
2021/07/31 01:35:33;;;;;;;1.53;0.60;;;19.50;98.40;;;;;;5026881;28;20174;-78
2021/07/31 01:38:09;;;;;;;1.60;0.70;;;19.50;98.50;;;;;;4987316;28;20639;-77
2021/07/31 01:40:35;;;;;;;1.40;0.63;;;19.40;98.60;;;;;;5029075;28;20620;-77
2021/07/31 01:43:02;;;;;;;1.67;0.90;;;19.40;98.60;;;;;;5030475;28;20627;-78
2021/07/31 01:45:28;;;;;;;1.87;0.60;;;19.30;98.60;;;;;;5014125;28;20576;-78
2021/07/31 01:47:57;;;;;;;2.13;0.60;;;19.30;98.60;;;;;;5030282;28;20568;-78
2021/07/31 01:50:23;;;;;;;1.50;0.70;;;19.30;98.80;;;;;;5030349;28;20666;-78
2021/07/31 01:52:52;;;;;;;2.10;1.03;;;19.20;98.80;;;;;;5030522;28;20556;-78
2021/07/31 01:55:21;;;;;;;2.17;0.63;;;19.20;99.00;;;;;;5030372;28;20569;-78
2021/07/31 01:57:52;;;;;;;3.30;0.93;;;19.20;99.00;;;;;;5030057;28;20626;-78
2021/07/31 02:00:36;;;;;;;1.50;1.10;;;19.20;99.10;;;;;;5031597;28;21150;-78
2021/07/31 02:03:07;;;;;;;4.13;0.80;;;19.20;99.30;;;;;;5031329;28;20564;-78
2021/07/31 02:05:40;;;;;;;2.27;0.90;;;19.20;99.30;;;;;;5032891;28;20615;-77
2021/07/31 02:08:07;;;;;;;2.70;0.80;;;19.20;99.40;;;;;;5030471;28;21151;-77
2021/07/31 02:10:47;;;;;;;2.60;1.20;;;19.20;99.40;;;;;;5031441;28;20632;-77
2021/07/31 02:13:13;;;;;;;2.70;0.67;;;19.20;99.60;;;;;;5030124;28;20902;-77
2021/07/31 02:15:45;;;;;;;2.70;0.73;;;19.20;99.60;;;;;;5030169;28;20582;-77
2021/07/31 02:18:14;;;;;;;2.93;1.00;;;19.20;99.70;;;;;;5029782;28;20602;-77
2021/07/31 02:20:40;;;;;;;1.43;0.70;;;19.10;99.70;;;;;;5014069;28;20600;-77
2021/07/31 02:23:22;;;;;;;1.73;0.80;;;19.20;99.80;;;;;;5013579;28;20631;-77
2021/07/31 02:26:07;;;;;;;2.83;0.77;;;19.10;99.90;;;;;;5029995;28;20592;-77
2021/07/31 02:28:51;;;;;;;1.80;0.70;;;19.10;99.90;;;;;;5029648;28;21159;-77
2021/07/31 02:31:17;;;;;;;2.17;0.70;;;19.10;99.90;;;;;;5013694;28;20635;-77
2021/07/31 02:33:48;;;;;;;1.70;0.67;;;19.10;99.90;;;;;;5029998;28;20579;-77
2021/07/31 02:36:15;;;;;;;1.50;0.70;;;19.10;99.90;;;;;;5013391;28;20576;-77
2021/07/31 02:38:59;;;;;;;1.43;0.60;;;19.10;99.90;;;;;;5029787;28;20895;-77
2021/07/31 02:41:25;;;;;;;2.17;0.70;;;19.10;99.90;;;;;;5030229;28;20642;-78
2021/07/31 02:43:51;;;;;;;1.90;0.60;;;19.00;99.90;;;;;;5016884;28;20642;-77
2021/07/31 02:46:17;;;;;;;1.83;0.80;;;19.00;99.90;;;;;;5031241;28;20592;-78
2021/07/31 02:48:43;;;;;;;1.43;0.57;;;19.00;99.90;;;;;;5031714;28;20235;-78
2021/07/31 02:51:14;;;;;;;1.37;0.60;;;19.00;99.90;;;;;;5017037;28;20652;-78
2021/07/31 02:54:01;;;;;;;2.60;0.50;;;19.00;99.90;;;;;;5033408;28;20975;-78
2021/07/31 02:56:30;;;;;;;1.90;0.70;;;18.90;99.90;;;;;;5033549;28;20584;-78
2021/07/31 02:58:57;;;;;;;3.00;0.77;;;18.90;99.90;;;;;;5033096;28;20572;-78
2021/07/31 03:01:23;;;;;;;1.90;0.70;;;18.90;99.90;;;;;;5033524;28;20979;-78
2021/07/31 03:03:50;;;;;;;1.90;0.70;;;18.90;99.90;;;;;;5034516;28;20177;-78
2021/07/31 03:06:16;;;;;;;1.73;0.50;;;18.90;99.90;;;;;;5034659;28;20671;-78
2021/07/31 03:08:43;;;;;;;1.63;0.60;;;18.90;99.90;;;;;;5034380;28;20583;-78
2021/07/31 03:11:09;;;;;;;2.07;0.70;;;18.90;99.90;;;;;;5033378;28;20702;-78
2021/07/31 03:13:36;;;;;;;1.60;0.80;;;19.00;99.90;;;;;;5033334;28;20582;-77
2021/07/31 03:16:04;;;;;;;1.40;0.67;;;19.00;99.90;;;;;;5016770;28;20572;-77
2021/07/31 03:18:31;;;;;;;1.47;0.70;;;19.00;99.90;;;;;;5033879;28;20580;-78
2021/07/31 03:20:59;;;;;;;1.83;0.70;;;19.00;99.90;;;;;;5019037;28;20608;-78
2021/07/31 03:23:46;;;;;;;1.50;0.70;;;19.00;99.90;;;;;;5019540;28;20691;-77
2021/07/31 03:26:12;;;;;;;3.40;0.80;;;19.10;99.90;;;;;;5033032;28;21023;-78
2021/07/31 03:28:38;;;;;;;1.63;0.70;;;19.10;99.90;;;;;;5016061;28;20594;-77
2021/07/31 03:31:04;;;;;;;1.60;0.70;;;19.10;99.90;;;;;;5032854;28;20632;-77
2021/07/31 03:33:30;;;;;;;1.60;0.80;;;19.20;99.90;;;;;;5032953;28;20166;-77
2021/07/31 03:35:56;;;;;;;1.40;0.70;;;19.20;99.90;;;;;;5034137;28;20659;-77
2021/07/31 03:38:31;;;;;;;1.73;0.67;;;19.20;99.90;;;;;;5032513;28;20588;-77
2021/07/31 03:40:58;;;;;;;1.33;0.60;;;19.20;99.90;;;;;;5032871;28;20657;-77
2021/07/31 03:43:31;;;;;;;1.50;0.70;;;19.30;99.90;;;;;;5017120;28;20173;-77
2021/07/31 03:45:56;;;;;;;1.30;0.70;;;19.30;99.90;;;;;;5033662;28;20583;-77
2021/07/31 03:48:23;;;;;;;1.83;0.80;;;19.30;99.90;;;;;;5032478;28;20576;-78
2021/07/31 03:50:50;;;;;;;1.30;0.63;;;19.40;99.90;;;;;;4999562;28;20644;-77
2021/07/31 03:53:24;;;;;;;1.30;0.60;;;19.40;99.90;;;;;;5032810;28;20706;-77
2021/07/31 03:55:52;;;;;;;3.23;0.80;;;19.50;99.90;;;;;;5037627;28;20929;-77
2021/07/31 03:58:18;;;;;;;1.77;0.87;;;19.50;99.90;;;;;;5015828;28;20580;-77
2021/07/31 04:00:44;;;;;;;2.70;0.73;;;19.50;99.90;;;;;;5031823;28;21167;-77
2021/07/31 04:03:11;;;;;;;2.27;0.80;;;19.50;99.90;;;;;;5015833;28;20569;-77
2021/07/31 04:05:39;;;;;;;2.40;0.80;;;19.60;99.90;;;;;;5033347;28;21476;-77
2021/07/31 04:08:23;;;;;;;5.40;0.70;;;19.60;99.90;;;;;;5033380;28;20575;-78
2021/07/31 04:11:07;;;;;;;1.40;0.60;;;19.70;99.90;;;;;;5031881;28;20647;-77
2021/07/31 04:13:54;;;;;;;2.23;0.60;;;19.70;99.90;;;;;;5018339;28;20580;-77
2021/07/31 04:16:26;;;;;;;2.27;0.80;;;19.70;99.90;;;;;;5032003;28;21115;-76
2021/07/31 04:18:52;;;;;;;2.43;1.00;;;19.70;99.90;;;;;;5032987;28;20576;-76
2021/07/31 04:21:17;;;;;;;2.37;0.70;;;19.70;99.90;;;;;;5033156;28;20204;-77
2021/07/31 04:23:43;;;;;;;2.10;0.63;;;19.70;99.90;;;;;;5015662;28;20196;-77
2021/07/31 04:26:16;;;;;;;1.40;0.80;;;19.70;99.90;;;;;;5031771;28;20583;-78
2021/07/31 04:28:43;;;;;;;1.87;0.90;;;19.70;99.90;;;;;;5031717;28;20576;-78
2021/07/31 04:31:10;;;;;;;2.37;0.80;;;19.70;99.90;;;;;;5033140;28;20631;-76
2021/07/31 04:33:36;;;;;;;5.43;0.97;;;19.80;99.90;;;;;;5034447;28;20594;-77
2021/07/31 04:36:02;;;;;;;4.80;1.00;;;19.80;99.90;;;;;;5031488;28;20573;-77
2021/07/31 04:38:30;;;;;;;3.70;1.00;;;19.80;99.90;;;;;;5031518;28;20174;-78
2021/07/31 04:40:56;;;;;;;1.90;0.90;;;19.80;99.90;;;;;;4998717;28;20612;-78
2021/07/31 04:43:22;;;;;;;1.63;0.73;;;19.90;99.90;;;;;;5032952;28;21142;-75
2021/07/31 04:45:48;;;;;;;2.00;1.00;;;19.90;99.90;;;;;;5032530;28;20675;-77
2021/07/31 04:48:14;;;;;;;2.20;0.60;;;19.90;99.90;;;;;;5031442;28;20212;-77
2021/07/31 04:50:40;;;;;;;1.80;0.70;;;19.90;99.90;;;;;;4998475;28;20241;-77
2021/07/31 04:53:06;;;;;;;2.50;0.90;;;19.90;99.90;;;;;;5031548;28;20169;-77
2021/07/31 04:55:31;;;;;;;2.00;0.80;;;19.80;99.90;;;;;;5031228;28;20572;-78
2021/07/31 04:57:57;;;;;;;3.00;0.70;;;19.80;99.90;;;;;;5032568;28;20618;-77
2021/07/31 05:00:23;;;;;;;2.13;0.80;;;19.80;99.90;;;;;;5032756;28;20189;-77
2021/07/31 05:02:49;;;;;;;2.27;0.70;;;19.80;99.90;;;;;;5031506;28;20173;-77
2021/07/31 05:05:14;;;;;;;1.60;0.90;;;19.80;99.90;;;;;;5031163;28;20186;-77
2021/07/31 05:07:41;;;;;;;1.50;0.70;;;19.90;99.90;;;;;;5032423;28;20169;-78
2021/07/31 05:10:07;;;;;;;2.70;0.80;;;19.90;99.90;;;;;;5033789;28;20323;-76
2021/07/31 05:12:33;;;;;;;1.80;1.13;;;20.00;99.90;;;;;;5028387;28;20579;-77
2021/07/31 05:14:59;;;;;;;1.80;0.80;;;20.10;99.90;;;;;;5005928;28;20594;-77
2021/07/31 05:17:25;;;;;;;1.60;0.80;;;20.10;99.90;;;;;;5019193;28;20569;-76
2021/07/31 05:19:51;;;;;;;2.30;0.80;;;20.20;99.90;;;;;;5028617;28;20193;-77
2021/07/31 05:22:18;;;;;;;1.53;0.80;;;20.30;99.90;;;;;;5022711;28;20635;-77
2021/07/31 05:24:44;;;;;;;2.43;0.80;;;20.30;99.90;;;;;;5030923;28;20584;-77
2021/07/31 05:27:10;;;;;;;1.37;0.80;;;20.40;99.90;;;;;;5025816;28;20597;-77
2021/07/31 05:29:36;;;;;;;2.23;0.90;;;20.50;99.90;;;;;;5019337;28;20656;-78
2021/07/31 05:32:02;;;;;;;1.60;0.70;;;20.50;99.90;;;;;;5022499;28;20202;-77
2021/07/31 05:34:27;;;;;;;2.30;0.90;;;20.60;99.90;;;;;;5021561;28;20505;-79
2021/07/31 05:36:53;;;;;;;3.97;1.07;;;20.70;99.90;;;;;;5018640;28;20582;-77
2021/07/31 05:39:19;;;;;;;3.87;1.37;;;20.70;99.90;;;;;;5011461;28;20194;-77
2021/07/31 05:41:44;;;;;;;2.27;0.80;;;20.80;99.90;;;;;;5015805;28;20244;-77
2021/07/31 05:44:10;;;;;;;2.27;1.00;;;20.80;99.90;;;;;;5023035;28;20197;-77
2021/07/31 05:46:36;;;;;;;4.03;0.87;;;20.80;99.90;;;;;;5021962;28;20181;-76
2021/07/31 05:49:02;;;;;;;2.20;1.20;;;20.80;99.90;;;;;;5024359;28;20175;-78
2021/07/31 05:51:30;;;;;;;3.60;1.00;;;20.70;99.90;;;;;;5025019;28;20611;-78
2021/07/31 05:53:56;;;;;;;2.27;0.73;;;20.80;99.90;;;;;;5019240;28;20234;-77
2021/07/31 05:56:22;;;;;;;2.10;0.77;;;20.90;99.90;;;;;;5014677;28;20577;-77
2021/07/31 05:58:47;;;;;;;2.37;0.80;;;21.00;99.90;;;;;;5011694;28;20178;-78
2021/07/31 06:01:13;;;;;;;2.07;0.77;;;21.10;99.90;;;;;;5011801;28;20216;-78
2021/07/31 06:03:39;;;;;;;2.70;0.90;;;21.20;99.90;;;;;;5011371;28;20182;-78
2021/07/31 06:06:05;;;;;;;2.43;0.70;;;21.30;99.90;;;;;;5012404;28;20179;-77
2021/07/31 06:08:34;;;;;;;3.00;1.30;;;21.30;99.90;;;;;;5012312;28;20577;-78
2021/07/31 06:11:05;;;;;;;2.60;0.70;;;21.30;99.90;;;;;;5012052;28;20636;-78
2021/07/31 06:13:34;;;;;;;1.93;0.70;;;21.40;99.90;;;;;;5011751;28;20596;-78
2021/07/31 06:16:00;;;;;;;1.37;0.70;;;21.40;99.90;;;;;;5010623;28;20581;-78
2021/07/31 06:18:26;;;;;;;3.53;1.10;;;21.50;99.90;;;;;;5011496;28;20608;-78
2021/07/31 06:20:52;;;;;;;1.70;0.70;;;21.70;99.90;;;;;;5010614;28;20244;-78
2021/07/31 06:23:18;;;;;;;2.30;0.80;;;22.20;99.90;;;;;;4999570;28;20906;-77
2021/07/31 06:25:44;;;;;;;2.47;1.03;;;22.90;99.90;;;;;;5015623;28;20569;-76
2021/07/31 06:28:10;;;;;;;2.03;0.80;;;23.80;99.90;;;;;;5015136;28;20623;-78
2021/07/31 06:30:36;;;;;;;1.20;0.70;;;24.70;99.90;;;;;;5014265;28;20641;-78
2021/07/31 06:33:02;;;;;;;1.67;0.70;;;25.60;99.90;;;;;;5014421;28;20185;-78
2021/07/31 06:35:27;;;;;;;2.50;0.90;;;26.60;99.90;;;;;;5015745;28;20565;-77
2021/07/31 06:37:53;;;;;;;2.03;0.50;;;27.50;99.90;;;;;;5013548;28;20518;-77
2021/07/31 06:40:19;;;;;;;1.33;0.60;;;28.30;99.10;;;;;;5023703;28;20225;-77
2021/07/31 06:42:45;;;;;;;1.40;0.70;;;29.20;98.10;;;;;;5025174;28;21166;-77
2021/07/31 06:45:11;;;;;;;1.73;0.80;;;29.90;96.70;;;;;;5035558;28;20178;-78
2021/07/31 06:47:36;;;;;;;2.63;0.60;;;30.70;95.70;;;;;;5034873;28;20590;-78
2021/07/31 06:50:05;;;;;;;1.60;0.70;;;31.40;94.10;;;;;;5027239;28;21211;-78
2021/07/31 06:52:30;;;;;;;2.20;0.90;;;31.80;92.40;;;;;;5033252;28;20180;-78
2021/07/31 06:54:56;;;;;;;3.30;0.80;;;32.10;90.10;;;;;;5026001;28;21099;-78
2021/07/31 06:57:22;;;;;;;2.03;0.70;;;32.10;85.70;;;;;;5034664;28;20185;-78
2021/07/31 06:59:48;;;;;;;1.67;0.60;;;32.00;83.60;;;;;;5035328;28;20546;-77
2021/07/31 07:02:13;;;;;;;2.13;0.67;;;31.60;79.70;;;;;;5033995;28;20525;-77
2021/07/31 07:04:39;;;;;;;1.97;0.70;;;30.90;78.40;;;;;;5017048;28;20220;-78
2021/07/31 07:07:05;;;;;;;1.73;0.90;;;30.40;78.60;;;;;;5034531;28;20184;-77
2021/07/31 07:09:30;;;;;;;2.60;0.80;;;30.00;77.60;;;;;;5034329;28;20186;-77
2021/07/31 07:11:56;;;;;;;2.77;0.90;;;29.40;77.50;;;;;;5034654;28;20212;-77
2021/07/31 07:14:22;;;;;;;3.10;0.67;;;28.80;76.90;;;;;;5033070;28;20535;-78
2021/07/31 07:16:48;;;;;;;1.50;0.80;;;28.40;77.20;;;;;;5034611;28;20568;-78
2021/07/31 07:19:13;;;;;;;1.30;0.63;;;28.20;80.20;;;;;;5034110;28;20280;-78
2021/07/31 07:21:40;;;;;;;1.97;0.87;;;28.10;80.00;;;;;;5034710;28;20559;-78
2021/07/31 07:24:06;;;;;;;1.67;0.70;;;27.90;79.80;;;;;;5033620;28;20220;-78
2021/07/31 07:26:31;;;;;;;1.40;0.80;;;27.70;79.60;;;;;;5034266;28;21009;-77
2021/07/31 07:28:57;;;;;;;1.90;0.80;;;27.50;79.40;;;;;;5034199;28;20166;-78
2021/07/31 07:31:23;;;;;;;1.60;0.60;;;27.20;79.20;;;;;;5034401;28;20657;-78
2021/07/31 07:33:48;;;;;;;1.97;0.63;;;27.10;80.70;;;;;;5033810;28;20219;-78
2021/07/31 07:36:16;;;;;;;1.97;0.60;;;27.10;80.90;;;;;;5037086;28;20177;-78
2021/07/31 07:38:42;;;;;;;3.83;0.83;;;27.00;81.30;;;;;;5033763;28;20207;-78
2021/07/31 07:41:10;;;;;;;1.60;0.70;;;27.20;83.40;;;;;;5032857;28;20615;-77
2021/07/31 07:43:36;;;;;;;3.07;0.80;;;27.50;82.80;;;;;;5033540;28;20579;-78
2021/07/31 07:46:02;;;;;;;2.33;0.80;;;27.90;84.70;;;;;;5033599;28;20568;-77
2021/07/31 07:48:28;;;;;;;3.47;0.70;;;28.70;84.90;;;;;;5032129;28;20576;-78
2021/07/31 07:50:54;;;;;;;1.83;1.00;;;29.40;84.00;;;;;;5032127;28;20995;-77
2021/07/31 07:53:20;;;;;;;1.97;0.83;;;29.70;81.50;;;;;;5032482;28;20577;-78
2021/07/31 07:55:46;;;;;;;1.90;0.73;;;29.90;79.00;;;;;;5033251;28;20963;-75
2021/07/31 07:58:12;;;;;;;2.33;0.87;;;30.20;78.20;;;;;;5033323;28;20184;-78
2021/07/31 08:00:38;;;;;;;1.80;0.83;;;30.30;78.00;;;;;;5026815;28;21203;-77
2021/07/31 08:03:07;;;;;;;1.60;0.70;;;30.70;76.80;;;;;;5023938;28;20177;-77
2021/07/31 08:05:35;;;;;;;4.07;0.60;;;31.10;75.80;;;;;;5031661;28;20197;-76
2021/07/31 08:08:02;;;;;;;4.00;0.73;;;31.70;75.90;;;;;;5018982;28;20965;-76
2021/07/31 08:10:28;;;;;;;2.33;0.70;;;32.20;74.70;;;;;;5019117;28;20645;-76
2021/07/31 08:12:53;;;;;;;5.17;1.10;;;32.60;73.20;;;;;;5027328;28;20590;-77
2021/07/31 08:15:19;;;;;;;2.93;0.90;;;33.20;71.90;;;;;;5024168;28;20182;-77
2021/07/31 08:17:45;;;;;;;2.03;0.60;;;33.60;70.70;;;;;;5011764;28;20165;-76
2021/07/31 08:20:11;;;;;;;2.70;0.70;;;34.10;68.40;;;;;;5012035;28;20212;-77
2021/07/31 08:22:37;;;;;;;3.67;0.73;;;34.30;66.00;;;;;;5012201;28;20176;-76
2021/07/31 08:25:03;;;;;;;1.50;0.80;;;34.30;63.60;;;;;;5013185;28;20670;-76
2021/07/31 08:27:29;;;;;;;2.27;0.90;;;34.20;61.70;;;;;;5012061;28;20257;-77
2021/07/31 08:29:55;;;;;;;2.37;0.80;;;34.00;60.30;;;;;;4995067;28;20657;-77
2021/07/31 08:32:21;;;;;;;2.90;1.10;;;33.50;59.20;;;;;;5013306;28;20582;-77
2021/07/31 08:34:46;;;;;;;3.37;0.90;;;32.80;58.20;;;;;;5012146;28;20166;-76
2021/07/31 08:37:12;;;;;;;3.17;1.00;;;32.00;58.10;;;;;;5011913;28;20573;-77
2021/07/31 08:39:38;;;;;;;3.57;0.87;;;31.40;58.40;;;;;;5012989;28;20194;-77
2021/07/31 08:42:05;;;;;;;4.53;0.90;;;30.70;58.60;;;;;;5013018;28;20173;-77
2021/07/31 08:44:35;;;;;;;4.27;0.70;;;30.00;59.40;;;;;;5013199;28;20588;-76
2021/07/31 08:47:03;;;;;;;2.90;0.83;;;29.60;61.20;;;;;;5012767;28;20581;-77
2021/07/31 08:49:31;;;;;;;2.27;0.70;;;29.10;61.00;;;;;;5012725;28;20678;-77
2021/07/31 08:51:58;;;;;;;4.63;0.90;;;28.70;62.00;;;;;;5011675;28;20717;-77
2021/07/31 08:54:24;;;;;;;2.07;0.60;;;28.40;62.70;;;;;;5013128;28;21132;-76
2021/07/31 08:56:50;;;;;;;1.47;0.50;;;28.20;63.60;;;;;;5012519;28;20577;-77
2021/07/31 08:59:16;;;;;;;2.13;0.80;;;28.10;65.00;;;;;;5011410;28;20601;-76
2021/07/31 09:01:43;;;;;;;2.70;0.60;;;28.20;66.00;;;;;;5011516;28;20178;-77
2021/07/31 09:04:16;;;;;;;1.47;0.80;;;28.30;66.70;;;;;;5012783;28;20573;-76
2021/07/31 09:06:44;;;;;;;1.77;0.70;;;28.70;67.90;;;;;;5012319;28;20944;-77
2021/07/31 09:09:11;;;;;;;1.37;0.60;;;29.10;68.50;;;;;;5012475;28;20578;-77
2021/07/31 09:12:03;;;;;;;1.93;0.60;;;29.50;67.50;;;;;;5011300;28;20759;-77
2021/07/31 09:14:30;;;;;;;1.20;0.60;;;29.50;64.90;;;;;;5012630;28;20570;-82
2021/07/31 09:16:57;;;;;;;1.40;0.67;;;29.20;64.10;;;;;;5012331;28;20569;-82
2021/07/31 09:19:25;;;;;;;3.17;0.70;;;28.80;63.70;;;;;;5011238;28;20613;-81
2021/07/31 09:22:00;;;;;;;2.50;0.70;;;28.50;64.20;;;;;;5011127;28;21315;-80
2021/07/31 09:24:27;;;;;;;1.30;0.77;;;28.20;64.60;;;;;;5012227;28;20608;-82
2021/07/31 09:26:55;;;;;;;2.07;0.70;;;28.20;66.60;;;;;;5015041;28;21020;-82
2021/07/31 09:29:32;;;;;;;2.07;0.70;;;28.20;66.50;;;;;;5011876;28;20596;-82
2021/07/31 09:32:06;;;;;;;2.20;0.97;;;28.00;65.60;;;;;;5012096;28;20716;-83
2021/07/31 09:34:45;;;;;;;4.80;0.90;;;27.70;65.40;;;;;;5011879;28;20573;-82
2021/07/31 09:37:12;;;;;;;1.80;1.00;;;27.50;65.40;;;;;;5010287;28;20920;-82
2021/07/31 09:39:57;;;;;;;1.60;0.90;;;27.20;66.00;;;;;;5026636;28;21170;-83
2021/07/31 09:42:40;;;;;;;2.53;0.70;;;27.00;66.70;;;;;;5017053;28;20660;-82
2021/07/31 09:45:15;;;;;;;6.73;0.80;;;26.70;66.30;;;;;;5023560;28;21022;-82
2021/07/31 09:48:04;;;;;;;1.90;0.70;;;26.50;66.80;;;;;;5009481;28;21143;-82
2021/07/31 09:50:47;;;;;;;3.30;0.90;;;26.50;68.10;;;;;;5014565;28;20663;-82
2021/07/31 09:53:15;;;;;;;4.33;0.80;;;26.50;68.90;;;;;;5023175;28;20588;-82
2021/07/31 09:55:46;;;;;;;1.20;0.70;;;26.50;69.10;;;;;;5029388;28;20589;-82
2021/07/31 09:58:14;;;;;;;2.73;1.30;;;26.60;70.10;;;;;;5022525;28;20938;-82
2021/07/31 10:00:42;;;;;;;2.03;0.60;;;27.10;71.50;;;;;;5029935;28;20616;-82
2021/07/31 10:03:12;;;;;;;2.33;0.60;;;28.00;73.90;;;;;;5021807;28;21152;-83
2021/07/31 10:05:40;;;;;;;1.50;0.67;;;28.80;72.70;;;;;;5021803;28;20626;-82
2021/07/31 10:08:07;;;;;;;1.87;0.70;;;29.60;71.30;;;;;;5029501;28;20612;-81
2021/07/31 10:10:34;;;;;;;1.20;0.70;;;30.00;69.30;;;;;;5022280;28;21083;-81
2021/07/31 10:13:00;;;;;;;3.83;0.87;;;30.10;66.70;;;;;;5031591;28;20625;-82
2021/07/31 10:15:27;;;;;;;1.63;0.70;;;30.00;64.70;;;;;;5022423;28;20593;-82
2021/07/31 10:17:53;;;;;;;1.43;0.70;;;29.70;63.00;;;;;;5028637;28;20605;-82
2021/07/31 10:20:28;;;;;;;1.80;0.70;;;29.30;62.20;;;;;;5020542;28;20957;-81
2021/07/31 10:22:54;;;;;;;3.73;0.70;;;29.00;61.50;;;;;;5013484;28;20592;-83
2021/07/31 10:25:25;;;;;;;2.50;0.87;;;28.70;62.50;;;;;;5029331;28;20596;-81
2021/07/31 10:27:53;;;;;;;4.27;1.20;;;28.40;62.70;;;;;;5025634;28;20584;-81
2021/07/31 10:30:34;;;;;;;2.50;1.07;;;28.20;63.10;;;;;;5028971;28;20628;-83
2021/07/31 10:33:01;;;;;;;4.20;1.47;;;28.00;63.20;;;;;;5024157;28;20968;-82
2021/07/31 10:35:33;;;;;;;2.57;0.77;;;27.80;63.90;;;;;;5021608;28;20574;-82
2021/07/31 10:38:09;;;;;;;1.63;0.90;;;27.70;64.10;;;;;;5019766;28;20577;-81
2021/07/31 10:40:43;;;;;;;3.60;1.10;;;27.50;64.30;;;;;;5012377;28;20621;-82
2021/07/31 10:43:13;;;;;;;3.67;0.80;;;27.30;64.30;;;;;;5012722;28;20620;-82
2021/07/31 10:45:41;;;;;;;2.63;0.70;;;27.00;64.20;;;;;;5011075;28;21000;-82
2021/07/31 10:48:23;;;;;;;4.50;1.50;;;26.80;64.50;;;;;;5012080;28;20936;-82
2021/07/31 10:50:49;;;;;;;3.63;0.90;;;26.60;65.00;;;;;;4994286;28;20652;-82
2021/07/31 10:53:16;;;;;;;3.77;1.27;;;26.50;65.70;;;;;;5011104;28;20578;-83
2021/07/31 10:55:42;;;;;;;4.60;1.90;;;26.70;68.20;;;;;;5010589;28;20993;-80
2021/07/31 10:58:15;;;;;;;6.13;1.27;;;27.10;70.60;;;;;;5011417;28;20571;-82
2021/07/31 11:00:49;;;;;;;1.97;1.07;;;27.60;70.70;;;;;;5010672;28;20297;-82
2021/07/31 11:03:15;;;;;;;5.33;1.87;;;28.10;70.50;;;;;;5010243;28;21032;-82
2021/07/31 11:06:03;;;;;;;5.90;3.50;;;28.80;72.20;;;;;;5010041;28;20626;-82
2021/07/31 11:08:51;;;;;;;4.07;1.80;;;29.40;70.30;;;;;;5011114;28;20604;-82
2021/07/31 11:11:20;;;;;;;2.40;0.90;;;30.10;65.80;;;;;;5003753;28;20668;-81
2021/07/31 11:13:46;;;;;;;1.63;0.80;;;30.60;66.40;;;;;;5014853;28;20633;-81
2021/07/31 11:16:15;;;;;;;1.50;0.70;;;30.70;64.40;;;;;;5017963;28;21340;-82
2021/07/31 11:18:42;;;;;;;2.80;0.83;;;30.70;63.00;;;;;;5014367;28;20269;-82
2021/07/31 11:21:19;;;;;;;2.33;1.10;;;30.50;61.10;;;;;;5013372;28;20659;-82
2021/07/31 11:23:56;;;;;;;3.50;1.43;;;30.20;60.00;;;;;;5014443;28;20589;-82
2021/07/31 11:26:39;;;;;;;1.93;0.90;;;30.00;60.00;;;;;;5013288;28;21023;-82
2021/07/31 11:29:09;;;;;;;2.00;0.70;;;29.80;60.40;;;;;;5014253;28;21005;-82
2021/07/31 11:31:38;;;;;;;1.63;0.77;;;29.80;61.80;;;;;;4996974;28;20728;-83
2021/07/31 11:34:08;;;;;;;4.27;0.70;;;29.90;62.40;;;;;;5013004;28;21203;-82
2021/07/31 11:36:36;;;;;;;1.70;0.90;;;29.90;61.70;;;;;;5014341;28;20668;-82
2021/07/31 11:39:04;;;;;;;1.93;1.27;;;29.90;61.20;;;;;;5012893;28;20665;-83
2021/07/31 11:41:36;;;;;;;2.43;1.20;;;29.80;60.70;;;;;;5013322;28;20568;-82
2021/07/31 11:44:02;;;;;;;2.20;1.60;;;29.80;60.40;;;;;;5012969;28;20569;-82
2021/07/31 11:46:41;;;;;;;2.63;1.10;;;29.50;60.00;;;;;;5012961;28;20577;-83
2021/07/31 11:49:22;;;;;;;2.53;1.20;;;29.20;59.60;;;;;;5013809;28;20670;-82
2021/07/31 11:51:48;;;;;;;2.23;1.00;;;28.90;59.70;;;;;;5031323;22;20678;-77
2021/07/31 11:54:14;;;;;;;3.40;1.30;;;28.60;60.10;;;;;;5035271;28;20671;-77
2021/07/31 11:56:42;;;;;;;2.67;0.70;;;28.30;60.60;;;;;;5032324;28;20177;-77
2021/07/31 11:59:09;;;;;;;5.17;1.00;;;28.00;61.00;;;;;;5032172;28;20561;-77
2021/07/31 12:01:37;;;;;;;2.30;1.70;;;27.60;61.30;;;;;;5032560;28;20650;-77
2021/07/31 12:04:03;;;;;;;4.73;3.50;;;27.20;61.70;;;;;;5032440;28;20604;-77
2021/07/31 12:06:30;;;;;;;4.37;2.33;;;26.90;62.30;;;;;;5032186;28;20569;-77
2021/07/31 12:09:01;;;;;;;3.47;1.53;;;26.60;63.00;;;;;;5032302;28;20564;-77
2021/07/31 12:11:37;;;;;;;2.70;1.23;;;26.20;64.40;;;;;;5032016;28;20639;-79
2021/07/31 12:14:28;;;;;;;2.40;1.00;;;25.90;65.50;;;;;;5033314;28;20564;-80
2021/07/31 12:17:12;;;;;;;3.70;0.97;;;25.60;66.60;;;;;;5033254;28;20563;-79
2021/07/31 12:19:45;;;;;;;1.60;1.00;;;25.40;66.60;;;;;;5032956;28;20591;-80
2021/07/31 12:22:13;;;;;;;3.80;1.90;;;25.30;68.10;;;;;;5031626;28;20631;-80
2021/07/31 12:24:39;;;;;;;2.00;1.00;;;25.40;70.00;;;;;;5029966;28;20581;-80
2021/07/31 12:27:05;;;;;;;2.43;0.83;;;25.70;70.00;;;;;;5024029;28;20601;-77
2021/07/31 12:29:36;;;;;;;1.83;1.07;;;25.90;69.70;;;;;;5031149;28;20169;-78
2021/07/31 12:32:27;;;;;;;1.60;0.70;;;26.20;69.50;;;;;;5027740;28;20237;-78
2021/07/31 12:34:55;;;;;;;1.40;0.87;;;26.40;69.20;;;;;;5016583;28;20585;-78
2021/07/31 12:37:22;;;;;;;2.13;0.80;;;26.90;70.10;;;;;;5014855;28;20608;-78
2021/07/31 12:39:51;;;;;;;3.17;1.30;;;27.20;70.10;;;;;;5032575;28;20639;-78
2021/07/31 12:42:19;;;;;;;2.07;1.27;;;27.40;69.20;;;;;;5032848;28;20612;-78
2021/07/31 12:44:44;;;;;;;2.07;1.20;;;27.50;68.00;;;;;;5015190;28;20569;-78
2021/07/31 12:47:10;;;;;;;3.00;1.23;;;27.50;67.30;;;;;;5031310;28;20583;-78
2021/07/31 12:49:37;;;;;;;2.20;1.10;;;27.50;66.60;;;;;;5031460;28;20172;-78
2021/07/31 12:52:06;;;;;;;1.73;0.90;;;27.40;65.80;;;;;;5032315;28;20205;-78
2021/07/31 12:54:32;;;;;;;1.60;0.77;;;27.20;65.20;;;;;;5015055;28;20573;-78